createdAt,value
2019-03-31T00:04:24.429Z,13.60
2019-03-31T00:09:27.335Z,14.10
2019-03-31T00:14:30.286Z,14.20
2019-03-31T00:19:33.203Z,12.57
2019-03-31T00:24:36.556Z,13.90
2019-03-31T00:29:39.534Z,13.70
2019-03-31T00:34:42.972Z,13.13
2019-03-31T00:39:45.873Z,14.30
2019-03-31T00:44:48.772Z,14.17
2019-03-31T00:49:52.092Z,13.20
2019-03-31T00:54:55.245Z,12.20
2019-03-31T00:59:58.151Z,12.67
2019-03-31T01:05:01.521Z,12.20
2019-03-31T01:10:06.278Z,13.67
2019-03-31T01:15:17.979Z,15.57
2019-03-31T01:20:20.896Z,12.93
2019-03-31T01:25:25.459Z,13.10
2019-03-31T01:30:28.984Z,12.27
2019-03-31T01:35:32.099Z,12.70
2019-03-31T01:40:35.251Z,11.67
2019-03-31T01:45:38.255Z,12.30
2019-03-31T01:50:41.151Z,10.97
2019-03-31T01:55:45.122Z,12.07
2019-03-31T02:00:52.539Z,12.70
2019-03-31T02:05:55.523Z,12.33
2019-03-31T02:10:58.435Z,11.73
2019-03-31T02:16:01.536Z,12.23
2019-03-31T02:21:04.553Z,11.33
2019-03-31T02:26:07.697Z,12.60
2019-03-31T02:31:11.534Z,10.97
2019-03-31T02:36:14.533Z,10.57
2019-03-31T02:41:17.447Z,11.10
2019-03-31T02:46:20.476Z,10.63
2019-03-31T02:51:24.532Z,10.43
2019-03-31T02:56:28.223Z,11.37
2019-03-31T03:01:33.504Z,11.63
2019-03-31T03:06:38.274Z,11.47
2019-03-31T03:11:41.735Z,11.77
2019-03-31T03:16:45.727Z,10.97
2019-03-31T03:21:48.679Z,10.67
2019-03-31T03:26:51.937Z,11.00
2019-03-31T03:31:54.902Z,11.20
2019-03-31T03:36:58.992Z,10.83
2019-03-31T03:42:02.075Z,9.70
2019-03-31T03:47:05.098Z,10.73
2019-03-31T03:52:09.609Z,11.17
2019-03-31T03:57:12.753Z,11.50
2019-03-31T04:02:15.708Z,10.33
2019-03-31T04:07:18.629Z,10.70
2019-03-31T04:12:21.608Z,10.63
2019-03-31T04:17:24.725Z,10.10
2019-03-31T04:22:27.697Z,10.90
2019-03-31T04:27:31.062Z,10.37
2019-03-31T04:32:38.503Z,12.23
2019-03-31T04:37:38.898Z,11.03
2019-03-31T04:42:41.796Z,10.97
2019-03-31T04:47:44.766Z,11.10
2019-03-31T04:52:47.747Z,10.77
2019-03-31T04:57:52.233Z,9.33
2019-03-31T05:02:56.459Z,11.10
2019-03-31T05:07:59.447Z,11.80
2019-03-31T05:13:02.476Z,9.73
2019-03-31T05:18:05.570Z,9.80
2019-03-31T05:23:08.585Z,10.17
2019-03-31T05:28:16.224Z,10.60
2019-03-31T05:33:19.152Z,11.40
2019-03-31T05:38:22.195Z,11.63
2019-03-31T05:43:25.091Z,10.03
2019-03-31T05:48:27.986Z,11.40
2019-03-31T05:53:32.616Z,12.20
2019-03-31T05:58:35.932Z,13.77
2019-03-31T06:03:39.333Z,11.17
2019-03-31T06:08:43.127Z,10.80
2019-03-31T06:13:46.425Z,11.57
2019-03-31T06:18:49.468Z,11.53
2019-03-31T06:23:52.542Z,12.23
2019-03-31T06:28:56.371Z,10.57
2019-03-31T06:33:59.351Z,10.00
2019-03-31T06:39:04.358Z,10.00
2019-03-31T06:44:07.416Z,10.67
2019-03-31T06:49:10.411Z,10.97
2019-03-31T06:54:13.368Z,11.50
2019-03-31T06:59:17.830Z,11.90
2019-03-31T07:04:20.852Z,12.80
2019-03-31T07:09:23.823Z,13.03
2019-03-31T07:14:26.796Z,13.57
2019-03-31T07:19:29.759Z,14.17
2019-03-31T07:24:32.756Z,15.67
2019-03-31T07:29:36.695Z,14.40
2019-03-31T07:34:40.144Z,14.03
2019-03-31T07:39:45.876Z,14.77
2019-03-31T07:44:47.941Z,13.40
2019-03-31T07:49:50.871Z,13.30
2019-03-31T07:54:54.120Z,12.80
2019-03-31T08:00:01.388Z,13.67
2019-03-31T08:05:06.700Z,14.27
2019-03-31T08:10:10.898Z,14.70
2019-03-31T08:15:13.954Z,14.37
2019-03-31T08:20:18.956Z,14.03
2019-03-31T08:25:21.924Z,14.83
2019-03-31T08:30:25.078Z,14.77
2019-03-31T08:35:28.027Z,14.97
2019-03-31T08:40:31.072Z,14.50
2019-03-31T08:45:34.384Z,14.83
2019-03-31T08:50:37.421Z,14.07
2019-03-31T08:55:41.368Z,14.60
2019-03-31T09:01:04.039Z,15.50
2019-03-31T09:06:07.625Z,14.07
2019-03-31T09:11:10.958Z,13.27
2019-03-31T09:16:14.366Z,12.07
2019-03-31T09:21:17.550Z,12.73
2019-03-31T09:26:20.612Z,11.83
2019-03-31T09:31:25.104Z,12.70
2019-03-31T09:36:28.041Z,12.33
2019-03-31T09:41:30.973Z,12.67
2019-03-31T09:46:34.033Z,12.00
2019-03-31T09:51:36.993Z,11.80
2019-03-31T09:56:40.222Z,12.13
2019-03-31T10:01:43.188Z,11.07
2019-03-31T10:06:46.285Z,12.03
2019-03-31T10:11:49.372Z,12.37
2019-03-31T10:16:53.179Z,12.33
2019-03-31T10:21:56.687Z,11.10
2019-03-31T10:27:00.458Z,11.30
2019-03-31T10:32:03.612Z,12.93
2019-03-31T10:37:06.558Z,11.00
2019-03-31T10:42:09.570Z,10.40
2019-03-31T10:47:12.516Z,10.27
2019-03-31T10:52:15.407Z,9.83
2019-03-31T10:57:18.835Z,8.37
2019-03-31T11:02:22.050Z,8.83
2019-03-31T11:07:25.161Z,6.30
2019-03-31T11:12:28.507Z,9.20
2019-03-31T11:17:31.388Z,10.23
2019-03-31T11:22:39.172Z,9.43
2019-03-31T11:27:43.955Z,8.63
2019-03-31T11:32:47.078Z,8.53
2019-03-31T11:37:50.059Z,9.13
2019-03-31T11:42:53.427Z,8.77
2019-03-31T11:47:56.422Z,9.50
2019-03-31T11:53:00.379Z,8.70
2019-03-31T11:58:03.590Z,9.73
2019-03-31T12:03:06.626Z,8.57
2019-03-31T12:08:09.597Z,8.67
2019-03-31T12:13:12.615Z,8.23
2019-03-31T12:18:15.752Z,8.13
2019-03-31T12:23:18.775Z,8.50
2019-03-31T12:28:21.967Z,9.10
2019-03-31T12:33:25.249Z,7.47
2019-03-31T12:38:28.140Z,8.93
2019-03-31T12:43:31.356Z,8.40
2019-03-31T12:48:34.444Z,8.97
2019-03-31T12:53:37.359Z,8.47
2019-03-31T12:58:41.557Z,8.57
2019-03-31T13:03:44.448Z,7.90
2019-03-31T13:08:47.437Z,7.80
2019-03-31T13:13:50.412Z,7.97
2019-03-31T13:18:53.755Z,8.70
2019-03-31T13:23:56.750Z,7.90
2019-03-31T13:29:00.278Z,7.50
2019-03-31T13:34:03.255Z,7.77
2019-03-31T13:39:11.343Z,7.67
2019-03-31T13:44:14.341Z,8.50
2019-03-31T13:49:17.314Z,8.10
2019-03-31T13:54:20.223Z,7.67
2019-03-31T13:59:23.157Z,6.80
2019-03-31T14:04:26.119Z,6.90
2019-03-31T14:09:29.155Z,7.07
2019-03-31T14:14:32.079Z,6.83
2019-03-31T14:19:35.004Z,6.57
2019-03-31T14:24:38.218Z,6.40
2019-03-31T14:29:45.064Z,6.47
2019-03-31T14:34:49.146Z,6.43
2019-03-31T14:39:53.075Z,6.10
2019-03-31T14:44:56.087Z,6.97
2019-03-31T14:50:00.679Z,7.17
2019-03-31T14:55:03.937Z,7.00
2019-03-31T15:00:14.629Z,6.30
2019-03-31T15:05:12.104Z,6.20
2019-03-31T15:10:15.135Z,6.15
2019-03-31T15:15:18.115Z,6.60
2019-03-31T15:20:21.304Z,6.45
2019-03-31T15:25:24.256Z,6.03
2019-03-31T15:30:27.424Z,6.53
2019-03-31T15:35:30.456Z,5.45
2019-03-31T15:40:34.158Z,4.78
2019-03-31T15:45:37.207Z,5.25
2019-03-31T15:50:40.173Z,4.70
2019-03-31T15:55:43.573Z,6.47
2019-03-31T16:00:46.419Z,6.50
2019-03-31T16:05:49.362Z,5.33
2019-03-31T16:10:52.423Z,6.70
2019-03-31T16:15:54.980Z,4.97
2019-03-31T16:20:57.309Z,5.70
2019-03-31T16:26:07.535Z,5.33
2019-03-31T16:31:10.008Z,5.47
2019-03-31T16:36:12.507Z,4.97
2019-03-31T16:41:15.124Z,3.83
2019-03-31T16:46:17.897Z,5.03
2019-03-31T16:51:21.427Z,4.87
2019-03-31T16:56:24.035Z,5.37
2019-03-31T17:01:26.413Z,4.90
2019-03-31T17:06:28.835Z,4.70
2019-03-31T17:11:32.330Z,5.33
2019-03-31T17:16:34.988Z,5.20
2019-03-31T17:21:37.394Z,4.43
2019-03-31T17:26:40.219Z,4.40
2019-03-31T17:31:42.563Z,5.63
2019-03-31T17:36:47.358Z,5.57
2019-03-31T17:41:50.489Z,5.90
2019-03-31T17:46:52.872Z,6.20
2019-03-31T17:51:55.403Z,5.90
2019-03-31T17:56:57.916Z,5.40
2019-03-31T18:02:01.719Z,5.60
2019-03-31T18:07:04.701Z,6.83
2019-03-31T18:12:08.870Z,6.73
2019-03-31T18:17:11.815Z,4.50
2019-03-31T18:22:16.561Z,6.03
2019-03-31T18:27:18.343Z,6.97
2019-03-31T18:32:20.886Z,7.57
2019-03-31T18:37:23.271Z,14.37
2019-03-31T18:42:29.056Z,16.47
2019-03-31T18:47:31.436Z,17.07
2019-03-31T18:52:33.801Z,18.40
2019-03-31T18:57:45.420Z,16.00
2019-03-31T19:03:06.082Z,10.43
2019-03-31T19:08:34.036Z,22.30
2019-03-31T19:13:55.907Z,22.37
2019-03-31T19:19:18.045Z,20.63
2019-03-31T19:24:30.878Z,14.13
2019-03-31T19:29:52.845Z,23.37
2019-03-31T19:35:13.207Z,18.20
2019-03-31T19:40:33.686Z,19.30
2019-03-31T19:45:55.002Z,22.20
2019-03-31T19:51:10.179Z,13.30
2019-03-31T19:56:32.170Z,11.57
2019-03-31T20:01:57.187Z,19.83
2019-03-31T20:07:25.520Z,19.97
2019-03-31T20:12:50.996Z,15.57
2019-03-31T20:18:11.713Z,14.53
2019-03-31T20:23:33.736Z,12.93
2019-03-31T20:28:41.899Z,13.77
2019-03-31T20:33:51.587Z,12.07
2019-03-31T20:39:13.526Z,20.97
2019-03-31T20:44:16.132Z,27.37
2019-03-31T20:49:18.890Z,14.63
2019-03-31T20:54:21.323Z,25.43
2019-03-31T20:59:23.747Z,29.63
2019-03-31T21:04:26.349Z,17.70
2019-03-31T21:09:28.774Z,28.37
2019-03-31T21:14:31.331Z,12.27
2019-03-31T21:19:33.975Z,28.70
2019-03-31T21:24:36.434Z,17.00
2019-03-31T21:29:38.795Z,26.63
2019-03-31T21:34:41.189Z,24.70
2019-03-31T21:39:43.664Z,15.33
2019-03-31T21:44:46.190Z,15.20
2019-03-31T21:49:48.762Z,18.90
2019-03-31T21:54:52.547Z,20.33
2019-03-31T21:59:55.444Z,18.23
2019-03-31T22:04:57.816Z,27.67
2019-03-31T22:10:00.624Z,9.27
2019-03-31T22:15:03.144Z,26.93
2019-03-31T22:20:06.917Z,25.40
2019-03-31T22:25:11.199Z,28.83
2019-03-31T22:30:13.583Z,15.60
2019-03-31T22:35:16.023Z,25.70
2019-03-31T22:40:18.419Z,20.23
2019-03-31T22:45:20.788Z,15.47
2019-03-31T22:50:23.815Z,16.50
2019-03-31T22:55:26.807Z,18.13
2019-03-31T23:00:29.062Z,27.93
2019-03-31T23:05:31.327Z,26.33
2019-03-31T23:10:33.695Z,24.40
2019-03-31T23:15:36.054Z,23.13
2019-03-31T23:20:39.659Z,21.30
2019-03-31T23:25:42.044Z,11.80
2019-03-31T23:30:45.238Z,13.50
2019-03-31T23:35:47.524Z,23.90
2019-03-31T23:40:51.686Z,11.57
2019-03-31T23:45:54.069Z,29.07
2019-03-31T23:50:57.001Z,19.00
2019-03-31T23:55:59.388Z,20.07
